createdAt,value
2023-07-19T00:00:07.303Z,45.49
2023-07-19T00:03:03.943Z,45.55
2023-07-19T00:05:33.382Z,45.18
2023-07-19T00:08:03.242Z,45.06
2023-07-19T00:10:32.259Z,45.04
2023-07-19T00:13:01.094Z,44.76
2023-07-19T00:15:31.339Z,45.34
2023-07-19T00:18:00.782Z,44.70
2023-07-19T00:20:31.954Z,44.32
2023-07-19T00:23:00.670Z,44.59
2023-07-19T00:25:29.593Z,43.92
2023-07-19T00:27:58.160Z,44.46
2023-07-19T00:30:27.150Z,45.50
2023-07-19T00:32:55.925Z,46.93
2023-07-19T00:35:24.927Z,46.14
2023-07-19T00:37:54.857Z,47.37
2023-07-19T00:40:23.777Z,47.26
2023-07-19T00:42:57.883Z,47.85
2023-07-19T00:45:28.184Z,48.73
2023-07-19T00:47:59.291Z,47.90
2023-07-19T00:50:28.897Z,47.19
2023-07-19T00:52:59.207Z,47.35
2023-07-19T00:55:28.236Z,47.39
2023-07-19T00:57:56.955Z,48.24
2023-07-19T01:00:27.444Z,48.35
2023-07-19T01:02:56.215Z,47.97
2023-07-19T01:05:25.366Z,47.60
2023-07-19T01:07:56.205Z,47.40
2023-07-19T01:10:27.501Z,47.02
2023-07-19T01:13:05.926Z,46.54
2023-07-19T01:15:35.262Z,46.49
2023-07-19T01:18:04.122Z,46.24
2023-07-19T01:20:34.888Z,45.49
2023-07-19T01:23:05.615Z,45.72
2023-07-19T01:25:34.774Z,45.21
2023-07-19T01:28:03.445Z,44.93
2023-07-19T01:30:32.509Z,44.84
2023-07-19T01:33:01.552Z,44.88
2023-07-19T01:35:30.806Z,44.74
2023-07-19T01:37:59.756Z,44.50
2023-07-19T01:40:30.121Z,44.97
2023-07-19T01:42:58.787Z,44.29
2023-07-19T01:45:29.343Z,43.69
2023-07-19T01:47:58.061Z,44.81
2023-07-19T01:50:27.619Z,44.50
2023-07-19T01:52:56.287Z,44.75
2023-07-19T01:55:25.320Z,44.40
2023-07-19T01:57:55.429Z,44.15
2023-07-19T02:00:25.200Z,44.08
2023-07-19T02:02:54.974Z,44.37
2023-07-19T02:05:24.175Z,43.67
2023-07-19T02:07:52.813Z,44.17
2023-07-19T02:10:21.956Z,44.04
2023-07-19T02:12:51.092Z,43.80
2023-07-19T02:15:21.624Z,43.55
2023-07-19T02:17:50.361Z,44.27
2023-07-19T02:20:20.608Z,43.69
2023-07-19T02:22:49.452Z,43.86
2023-07-19T02:25:18.475Z,44.26
2023-07-19T02:27:47.103Z,43.94
2023-07-19T02:30:16.002Z,43.99
2023-07-19T02:32:46.089Z,43.63
2023-07-19T02:35:15.301Z,43.97
2023-07-19T02:37:44.145Z,44.20
2023-07-19T02:40:13.701Z,44.37
2023-07-19T02:42:42.364Z,43.28
2023-07-19T02:45:11.763Z,44.67
2023-07-19T02:47:40.323Z,44.39
2023-07-19T02:50:11.821Z,44.39
2023-07-19T02:52:40.507Z,44.75
2023-07-19T02:55:10.271Z,44.71
2023-07-19T02:57:38.951Z,44.78
2023-07-19T03:00:09.323Z,44.77
2023-07-19T03:02:38.068Z,44.55
2023-07-19T03:05:07.838Z,43.95
2023-07-19T03:07:38.203Z,44.94
2023-07-19T03:10:07.765Z,44.62
2023-07-19T03:12:36.386Z,45.13
2023-07-19T03:15:06.166Z,44.74
2023-07-19T03:17:35.160Z,44.36
2023-07-19T03:20:04.445Z,45.91
2023-07-19T03:22:33.389Z,46.15
2023-07-19T03:25:03.975Z,46.42
2023-07-19T03:27:32.736Z,46.18
2023-07-19T03:30:02.263Z,46.31
2023-07-19T03:32:32.787Z,46.06
2023-07-19T03:35:01.841Z,45.51
2023-07-19T03:37:31.295Z,45.93
2023-07-19T03:40:00.416Z,45.95
2023-07-19T03:42:30.502Z,45.83
2023-07-19T03:44:59.542Z,45.87
2023-07-19T03:47:28.241Z,45.39
2023-07-19T03:49:57.823Z,45.71
2023-07-19T03:52:26.503Z,50.63
2023-07-19T03:54:57.790Z,54.48
2023-07-19T03:57:32.791Z,55.29
2023-07-19T04:00:05.048Z,55.96
2023-07-19T04:02:46.011Z,56.02
2023-07-19T04:05:18.491Z,54.89
2023-07-19T04:07:47.266Z,54.16
2023-07-19T04:10:16.723Z,53.42
2023-07-19T04:12:47.655Z,54.80
2023-07-19T04:15:17.207Z,55.49
2023-07-19T04:17:46.919Z,55.17
2023-07-19T04:20:16.255Z,54.04
2023-07-19T04:22:45.194Z,54.84
2023-07-19T04:25:15.014Z,56.48
2023-07-19T04:27:43.965Z,56.14
2023-07-19T04:30:15.805Z,56.28
2023-07-19T04:32:45.073Z,55.97
2023-07-19T04:35:14.978Z,56.07
2023-07-19T04:37:43.987Z,55.17
2023-07-19T04:40:13.872Z,54.18
2023-07-19T04:42:43.302Z,53.21
2023-07-19T04:45:15.133Z,53.15
2023-07-19T04:47:45.361Z,53.26
2023-07-19T04:50:14.848Z,53.49
2023-07-19T04:52:46.563Z,52.72
2023-07-19T04:55:16.620Z,52.50
2023-07-19T04:57:45.646Z,52.96
2023-07-19T05:00:19.645Z,51.44
2023-07-19T05:02:48.993Z,50.19
2023-07-19T05:05:18.777Z,48.91
2023-07-19T05:07:50.016Z,48.54
2023-07-19T05:10:20.687Z,47.77
2023-07-19T05:12:50.088Z,47.78
2023-07-19T05:15:21.327Z,47.47
2023-07-19T05:17:50.603Z,46.69
2023-07-19T05:20:21.226Z,45.84
2023-07-19T05:22:50.812Z,45.26
2023-07-19T05:25:20.175Z,45.29
2023-07-19T05:27:49.219Z,44.65
2023-07-19T05:30:18.815Z,44.90
2023-07-19T05:32:50.154Z,43.94
2023-07-19T05:35:19.737Z,43.64
2023-07-19T05:37:48.647Z,43.24
2023-07-19T05:40:18.465Z,42.64
2023-07-19T05:42:47.879Z,42.85
2023-07-19T05:45:16.965Z,43.00
2023-07-19T05:47:45.629Z,43.57
2023-07-19T05:50:17.030Z,42.66
2023-07-19T05:52:45.792Z,42.56
2023-07-19T05:55:15.725Z,44.05
2023-07-19T05:57:44.343Z,42.63
2023-07-19T06:00:25.582Z,42.61
2023-07-19T06:02:55.842Z,41.83
2023-07-19T06:05:28.145Z,41.29
2023-07-19T06:08:04.010Z,41.43
2023-07-19T06:10:43.174Z,40.19
2023-07-19T06:13:15.206Z,40.18
2023-07-19T06:15:44.209Z,40.14
2023-07-19T06:18:12.976Z,40.57
2023-07-19T06:20:43.382Z,40.47
2023-07-19T06:23:12.051Z,40.06
2023-07-19T06:25:41.022Z,39.91
2023-07-19T06:28:09.780Z,39.89
2023-07-19T06:30:38.870Z,40.00
2023-07-19T06:33:07.532Z,39.62
2023-07-19T06:35:36.576Z,39.37
2023-07-19T06:38:07.103Z,39.64
2023-07-19T06:40:36.031Z,41.18
2023-07-19T06:43:07.428Z,42.29
2023-07-19T06:45:36.294Z,42.25
2023-07-19T06:48:05.248Z,41.47
2023-07-19T06:50:34.507Z,41.26
2023-07-19T06:53:03.328Z,40.28
2023-07-19T06:55:33.641Z,39.39
2023-07-19T06:58:02.319Z,38.68
2023-07-19T07:00:31.448Z,37.57
2023-07-19T07:03:00.162Z,36.83
2023-07-19T07:05:29.404Z,36.72
2023-07-19T07:07:57.950Z,38.09
2023-07-19T07:10:26.936Z,36.74
2023-07-19T07:12:57.041Z,38.39
2023-07-19T07:15:26.030Z,39.51
2023-07-19T07:17:54.820Z,39.90
2023-07-19T07:20:23.778Z,39.05
2023-07-19T07:22:54.195Z,38.42
2023-07-19T07:25:23.440Z,38.04
2023-07-19T07:27:52.118Z,37.71
2023-07-19T07:30:22.560Z,37.31
2023-07-19T07:32:51.189Z,38.53
2023-07-19T07:35:20.364Z,38.10
2023-07-19T07:37:49.022Z,38.46
2023-07-19T07:40:18.035Z,37.82
2023-07-19T07:42:46.601Z,37.36
2023-07-19T07:45:15.715Z,37.87
2023-07-19T07:47:45.828Z,37.88
2023-07-19T07:50:14.849Z,38.11
2023-07-19T07:52:44.169Z,39.12
2023-07-19T07:55:15.607Z,39.70
2023-07-19T07:57:44.504Z,39.40
2023-07-19T08:00:16.249Z,38.61
2023-07-19T08:02:46.415Z,39.96
2023-07-19T08:05:15.485Z,41.16
2023-07-19T08:07:44.215Z,41.84
2023-07-19T08:10:13.359Z,41.95
2023-07-19T08:12:42.061Z,41.65
2023-07-19T08:15:11.566Z,41.03
2023-07-19T08:17:40.408Z,41.57
2023-07-19T08:20:12.410Z,40.78
2023-07-19T08:22:41.707Z,41.45
2023-07-19T08:25:25.681Z,42.50
2023-07-19T08:27:56.384Z,44.16
2023-07-19T08:30:25.721Z,43.93
2023-07-19T08:32:54.727Z,42.87
2023-07-19T08:35:25.261Z,42.46
2023-07-19T08:37:54.011Z,41.65
2023-07-19T08:40:23.140Z,41.32
2023-07-19T08:42:53.020Z,42.05
2023-07-19T08:45:26.138Z,41.94
2023-07-19T08:47:55.440Z,43.29
2023-07-19T08:50:27.599Z,42.28
2023-07-19T08:53:02.360Z,41.70
2023-07-19T08:55:32.812Z,40.50
2023-07-19T08:58:01.884Z,39.38
2023-07-19T09:00:33.291Z,38.31
2023-07-19T09:03:02.035Z,38.20
2023-07-19T09:05:32.436Z,37.08
2023-07-19T09:08:02.234Z,37.76
2023-07-19T09:10:31.233Z,36.94
2023-07-19T09:12:59.851Z,36.58
2023-07-19T09:15:30.041Z,35.54
2023-07-19T09:17:58.803Z,35.78
2023-07-19T09:20:30.105Z,36.13
2023-07-19T09:23:00.190Z,34.89
2023-07-19T09:25:29.790Z,35.68
2023-07-19T09:27:58.379Z,34.44
2023-07-19T09:30:27.627Z,34.61
2023-07-19T09:33:02.361Z,34.44
2023-07-19T09:35:31.882Z,35.37
2023-07-19T09:38:02.110Z,35.88
2023-07-19T09:40:32.789Z,34.91
2023-07-19T09:43:02.748Z,33.63
2023-07-19T09:45:33.968Z,33.47
2023-07-19T09:48:05.734Z,33.66
2023-07-19T09:50:35.141Z,34.51
2023-07-19T09:53:05.546Z,34.62
2023-07-19T09:55:35.669Z,34.96
2023-07-19T09:58:07.327Z,34.48
2023-07-19T10:00:37.409Z,33.99
2023-07-19T10:03:08.229Z,33.33
2023-07-19T10:05:38.281Z,32.77
2023-07-19T10:08:12.678Z,32.46
2023-07-19T10:10:43.126Z,31.66
2023-07-19T10:13:14.951Z,32.53
2023-07-19T10:15:52.474Z,32.80
2023-07-19T10:18:22.286Z,31.74
2023-07-19T10:21:02.681Z,29.10
2023-07-19T10:23:32.806Z,31.69
2023-07-19T10:26:07.859Z,30.61
2023-07-19T10:28:36.603Z,30.17
2023-07-19T10:31:25.884Z,31.27
2023-07-19T10:33:57.252Z,30.08
2023-07-19T10:36:26.752Z,29.95
2023-07-19T10:38:57.155Z,30.05
2023-07-19T10:41:26.094Z,29.15
2023-07-19T10:44:01.502Z,28.67
2023-07-19T10:46:32.462Z,27.75
2023-07-19T10:49:01.243Z,27.34
2023-07-19T10:51:30.303Z,27.24
2023-07-19T10:54:00.804Z,27.66
2023-07-19T10:56:30.801Z,26.57
2023-07-19T10:59:00.905Z,28.31
2023-07-19T11:01:31.609Z,28.95
2023-07-19T11:04:05.932Z,27.97
2023-07-19T11:06:35.634Z,27.66
2023-07-19T11:09:10.501Z,27.17
2023-07-19T11:11:40.931Z,27.32
2023-07-19T11:14:09.736Z,26.40
2023-07-19T11:16:38.715Z,26.32
2023-07-19T11:19:07.358Z,25.75
2023-07-19T11:21:36.222Z,26.03
2023-07-19T11:24:06.603Z,26.28
2023-07-19T11:26:52.742Z,25.37
2023-07-19T11:29:21.849Z,25.35
2023-07-19T11:31:50.795Z,25.96
2023-07-19T11:34:19.451Z,26.36
2023-07-19T11:36:49.398Z,25.77
2023-07-19T11:39:18.283Z,24.72
2023-07-19T11:41:49.875Z,25.11
2023-07-19T11:44:20.568Z,24.42
2023-07-19T11:46:49.629Z,24.33
2023-07-19T11:49:19.179Z,23.39
2023-07-19T11:51:48.978Z,22.25
2023-07-19T11:54:17.511Z,22.89
2023-07-19T11:56:46.378Z,22.47
2023-07-19T11:59:16.426Z,22.16
2023-07-19T12:01:45.359Z,22.35
2023-07-19T12:04:14.002Z,22.35
2023-07-19T12:06:42.926Z,21.72
2023-07-19T12:09:14.202Z,21.29
2023-07-19T12:11:46.790Z,21.98
2023-07-19T12:14:18.153Z,22.57
2023-07-19T12:16:47.037Z,22.50
2023-07-19T12:19:16.462Z,21.87
2023-07-19T12:21:45.386Z,21.52
2023-07-19T12:24:14.037Z,22.40
2023-07-19T12:26:42.997Z,21.96
2023-07-19T12:29:12.452Z,21.91
2023-07-19T12:31:42.853Z,21.02
2023-07-19T12:34:11.399Z,20.36
2023-07-19T12:36:40.249Z,19.69
2023-07-19T12:39:08.818Z,19.74
2023-07-19T12:41:39.918Z,19.14
2023-07-19T12:44:09.194Z,18.77
2023-07-19T12:46:38.420Z,18.42
2023-07-19T12:49:08.347Z,17.25
2023-07-19T12:51:37.384Z,16.75
2023-07-19T12:54:06.306Z,16.32
2023-07-19T12:56:35.255Z,16.84
2023-07-19T12:59:04.309Z,18.02
2023-07-19T13:01:34.807Z,16.46
2023-07-19T13:04:03.778Z,15.67
2023-07-19T13:06:35.182Z,15.34
2023-07-19T13:09:05.508Z,15.96
2023-07-19T13:11:35.221Z,17.40
2023-07-19T13:14:04.893Z,16.62
2023-07-19T13:16:34.627Z,16.08
2023-07-19T13:19:03.253Z,15.78
2023-07-19T13:21:33.788Z,15.17
2023-07-19T13:24:02.493Z,15.35
2023-07-19T13:26:31.563Z,14.10
2023-07-19T13:29:01.429Z,13.49
2023-07-19T13:31:30.440Z,13.70
2023-07-19T13:33:59.324Z,15.22
2023-07-19T13:36:29.958Z,15.00
2023-07-19T13:39:01.032Z,15.00
2023-07-19T13:41:29.982Z,14.70
2023-07-19T13:43:58.684Z,14.10
2023-07-19T13:46:27.894Z,13.57
2023-07-19T13:48:56.654Z,14.90
2023-07-19T13:51:25.581Z,15.83
2023-07-19T13:53:54.564Z,15.17
2023-07-19T13:56:24.868Z,14.71
2023-07-19T13:58:53.446Z,15.08
2023-07-19T14:01:22.650Z,15.09
2023-07-19T14:03:52.093Z,15.31
2023-07-19T14:06:23.095Z,15.61
2023-07-19T14:08:52.257Z,15.86
2023-07-19T14:11:21.275Z,15.33
2023-07-19T14:16:23.691Z,15.13
2023-07-19T14:18:52.669Z,15.21
2023-07-19T14:21:21.631Z,15.56
2023-07-19T14:23:50.404Z,15.84
2023-07-19T14:26:19.741Z,16.02
2023-07-19T14:28:48.817Z,15.83
2023-07-19T14:31:22.597Z,15.67
2023-07-19T14:33:51.628Z,16.32
2023-07-19T14:36:22.995Z,16.27
2023-07-19T14:38:53.360Z,16.58
2023-07-19T14:41:22.463Z,17.72
2023-07-19T14:43:51.893Z,17.83
2023-07-19T14:46:24.457Z,17.95
2023-07-19T14:48:53.453Z,17.98
2023-07-19T14:51:22.380Z,17.39
2023-07-19T14:53:51.368Z,17.15
2023-07-19T14:56:21.342Z,17.98
2023-07-19T14:58:50.053Z,18.38
2023-07-19T15:01:22.287Z,18.29
2023-07-19T15:03:52.871Z,18.26
2023-07-19T15:06:23.539Z,17.79
2023-07-19T15:08:54.008Z,17.65
2023-07-19T15:11:23.772Z,18.32
2023-07-19T15:13:52.629Z,19.05
2023-07-19T15:16:23.404Z,19.58
2023-07-19T15:18:52.543Z,18.57
2023-07-19T15:21:22.303Z,18.67
2023-07-19T15:23:50.935Z,19.28
2023-07-19T15:26:33.389Z,19.46
2023-07-19T15:29:03.573Z,19.96
2023-07-19T15:31:34.754Z,19.16
2023-07-19T15:34:03.902Z,18.50
2023-07-19T15:36:32.824Z,19.07
2023-07-19T15:39:01.473Z,18.89
2023-07-19T15:41:30.474Z,18.71
2023-07-19T15:43:59.095Z,19.93
2023-07-19T15:46:28.336Z,20.29
2023-07-19T15:48:58.404Z,20.39
2023-07-19T15:51:27.277Z,20.78
2023-07-19T15:53:55.899Z,20.66
2023-07-19T15:56:25.064Z,20.23
2023-07-19T15:58:53.544Z,20.73
2023-07-19T16:01:22.803Z,20.98
2023-07-19T16:03:51.769Z,19.81
2023-07-19T16:06:22.137Z,20.22
2023-07-19T16:08:50.963Z,19.54
2023-07-19T16:11:20.146Z,20.30
2023-07-19T16:13:50.369Z,20.21
2023-07-19T16:16:19.348Z,20.29
2023-07-19T16:18:48.333Z,20.73
2023-07-19T16:21:17.250Z,20.74
2023-07-19T16:23:47.430Z,20.53
2023-07-19T16:26:16.417Z,19.96
2023-07-19T16:28:45.006Z,20.43
2023-07-19T16:31:14.373Z,20.75
2023-07-19T16:33:43.470Z,20.08
2023-07-19T16:36:12.619Z,19.60
2023-07-19T16:38:41.367Z,20.18
2023-07-19T16:41:11.709Z,20.18
2023-07-19T16:43:40.459Z,20.68
2023-07-19T16:46:09.681Z,20.13
2023-07-19T16:48:38.455Z,21.14
2023-07-19T16:51:07.499Z,21.53
2023-07-19T16:53:36.065Z,22.05
2023-07-19T16:56:05.039Z,21.95
2023-07-19T16:58:35.158Z,22.03
2023-07-19T17:01:04.162Z,22.58
2023-07-19T17:03:32.842Z,22.67
2023-07-19T17:06:01.873Z,23.19
2023-07-19T17:08:30.600Z,23.71
2023-07-19T17:11:00.371Z,24.05
2023-07-19T17:13:29.503Z,24.15
2023-07-19T17:16:01.009Z,24.40
2023-07-19T17:18:29.660Z,24.69
2023-07-19T17:20:58.682Z,25.47
2023-07-19T17:23:27.421Z,25.23
2023-07-19T17:25:56.446Z,24.80
2023-07-19T17:28:25.154Z,25.18
2023-07-19T17:30:57.079Z,25.25
2023-07-19T17:33:27.179Z,24.39
2023-07-19T17:35:56.297Z,24.94
2023-07-19T17:38:27.130Z,24.94
2023-07-19T17:40:57.380Z,24.62
2023-07-19T17:43:26.537Z,24.72
2023-07-19T17:45:55.509Z,25.10
2023-07-19T17:48:24.209Z,25.17
2023-07-19T17:50:54.842Z,25.46
2023-07-19T17:53:23.490Z,25.61
2023-07-19T17:55:52.500Z,26.98
2023-07-19T17:58:21.203Z,28.45
2023-07-19T18:00:50.870Z,32.78
2023-07-19T18:03:19.884Z,42.76
2023-07-19T18:05:48.983Z,50.20
2023-07-19T18:08:23.944Z,64.75
2023-07-19T18:10:54.693Z,82.80
2023-07-19T18:13:23.469Z,88.72
2023-07-19T18:15:52.430Z,93.02
2023-07-19T18:18:21.313Z,95.94
2023-07-19T18:20:52.722Z,98.32
2023-07-19T18:23:22.959Z,100.00
2023-07-19T18:25:51.927Z,99.45
2023-07-19T18:28:20.659Z,99.85
2023-07-19T18:30:49.833Z,98.37
2023-07-19T18:33:18.660Z,98.47
2023-07-19T18:35:47.782Z,96.57
2023-07-19T18:38:16.576Z,96.48
2023-07-19T18:40:47.199Z,96.05
2023-07-19T18:43:16.340Z,95.27
2023-07-19T18:46:05.427Z,94.58
2023-07-19T18:48:34.620Z,92.79
2023-07-19T18:51:04.189Z,94.60
2023-07-19T18:53:37.188Z,94.77
2023-07-19T18:56:11.115Z,94.55
2023-07-19T18:58:40.039Z,93.33
2023-07-19T19:01:09.299Z,94.17
2023-07-19T19:03:38.544Z,93.49
2023-07-19T19:10:14.893Z,90.17
2023-07-19T19:12:45.091Z,88.25
2023-07-19T19:15:14.190Z,88.66
2023-07-19T19:17:43.091Z,88.22
2023-07-19T19:20:12.717Z,87.33
2023-07-19T19:22:41.598Z,86.79
2023-07-19T19:25:11.658Z,85.11
2023-07-19T19:27:40.279Z,85.15
2023-07-19T19:30:11.346Z,84.41
2023-07-19T19:32:40.316Z,83.84
2023-07-19T19:35:14.102Z,83.52
2023-07-19T19:37:43.222Z,83.70
2023-07-19T19:40:13.297Z,81.25
2023-07-19T19:42:45.089Z,80.51
2023-07-19T19:45:15.456Z,78.36
2023-07-19T19:47:45.679Z,75.99
2023-07-19T19:50:15.408Z,74.84
2023-07-19T19:52:52.181Z,75.41
2023-07-19T19:55:48.943Z,76.25
2023-07-19T19:58:16.892Z,75.43
2023-07-19T20:00:47.868Z,75.53
2023-07-19T20:08:20.878Z,73.10
2023-07-19T20:13:21.522Z,73.21
2023-07-19T20:15:53.718Z,71.34
2023-07-19T20:18:23.154Z,71.10
2023-07-19T20:20:53.689Z,70.22
2023-07-19T20:23:22.415Z,69.96
2023-07-19T20:26:12.061Z,70.48
2023-07-19T20:28:39.979Z,70.32
2023-07-19T20:31:10.736Z,71.65
2023-07-19T20:33:42.423Z,70.09
2023-07-19T20:36:45.668Z,69.75
2023-07-19T20:39:01.205Z,69.25
2023-07-19T20:44:01.962Z,69.20
2023-07-19T20:46:34.686Z,69.23
2023-07-19T20:49:06.215Z,69.22
2023-07-19T20:51:35.832Z,69.28
2023-07-19T20:54:06.488Z,68.35
2023-07-19T20:56:37.030Z,68.11
2023-07-19T20:59:05.670Z,69.39
2023-07-19T21:01:38.080Z,67.64
2023-07-19T21:04:07.020Z,68.58
2023-07-19T21:06:37.325Z,69.07
2023-07-19T21:09:06.457Z,68.24
2023-07-19T21:11:35.420Z,68.48
2023-07-19T21:14:04.307Z,67.70
2023-07-19T21:16:33.238Z,67.11
2023-07-19T21:19:03.342Z,66.26
2023-07-19T21:21:32.304Z,65.56
2023-07-19T21:24:02.390Z,67.07
2023-07-19T21:26:33.900Z,64.97
2023-07-19T21:29:02.603Z,67.28
2023-07-19T21:31:31.812Z,66.87
2023-07-19T21:34:00.526Z,67.06
2023-07-19T21:36:30.886Z,64.28
2023-07-19T21:38:59.500Z,63.84
2023-07-19T21:41:28.402Z,66.71
2023-07-19T21:43:57.031Z,67.55
2023-07-19T21:46:26.127Z,68.34
2023-07-19T21:48:56.584Z,66.79
2023-07-19T21:51:25.667Z,64.95
2023-07-19T21:53:55.994Z,66.30
2023-07-19T21:56:26.367Z,66.69
2023-07-19T21:58:55.372Z,66.00
2023-07-19T22:01:24.366Z,67.31
2023-07-19T22:03:53.177Z,66.72
2023-07-19T22:06:22.300Z,66.12
2023-07-19T22:08:51.512Z,66.28
2023-07-19T22:11:21.936Z,66.68
2023-07-19T22:13:50.618Z,66.36
2023-07-19T22:16:19.874Z,66.93
2023-07-19T22:18:48.954Z,67.12
2023-07-19T22:21:22.268Z,65.85
2023-07-19T22:23:51.571Z,66.69
2023-07-19T22:26:22.409Z,65.40
2023-07-19T22:28:52.633Z,67.47
2023-07-19T22:31:21.858Z,67.18
2023-07-19T22:33:50.603Z,66.95
2023-07-19T22:36:19.739Z,66.93
2023-07-19T22:38:48.528Z,66.88
2023-07-19T22:41:17.622Z,65.32
2023-07-19T22:43:49.395Z,65.97
2023-07-19T22:46:20.054Z,66.68
2023-07-19T22:48:50.488Z,67.80
2023-07-19T22:51:19.783Z,67.19
2023-07-19T22:53:48.535Z,67.56
2023-07-19T22:56:17.452Z,67.22
2023-07-19T22:58:47.427Z,66.88
2023-07-19T23:01:16.420Z,65.62
2023-07-19T23:03:45.223Z,64.75
2023-07-19T23:06:14.242Z,66.10
2023-07-19T23:08:42.726Z,66.75
2023-07-19T23:11:11.604Z,67.44
2023-07-19T23:13:40.188Z,66.68
2023-07-19T23:16:10.365Z,67.56
2023-07-19T23:18:38.876Z,66.92
2023-07-19T23:21:07.804Z,67.10
2023-07-19T23:23:36.292Z,67.75
2023-07-19T23:26:05.211Z,68.81
2023-07-19T23:28:36.993Z,67.87
2023-07-19T23:31:08.367Z,67.29
2023-07-19T23:33:38.455Z,67.96
2023-07-19T23:36:09.149Z,68.66
2023-07-19T23:38:37.675Z,67.84
2023-07-19T23:41:06.543Z,68.25
2023-07-19T23:43:35.094Z,68.77
2023-07-19T23:46:04.201Z,68.35
2023-07-19T23:48:32.681Z,67.68
2023-07-19T23:51:04.376Z,68.06
2023-07-19T23:53:32.863Z,69.14
2023-07-19T23:56:01.637Z,68.85
2023-07-19T23:58:30.153Z,68.44
